Terminal Aerodrome Forecast
Issued by NWS

Home | Current Version | Previous Version | Text Only | Print | Product List | Glossary On
Versions: 1 2 3 4 5 6 7 8 9 10 11 12 13 14 15 16
000
FTUS46 KPQR 250045 AAA
TAFONP
TAF AMD
KONP 250045Z 2501/2524 10012KT P6SM -SHRA SCT015 BKN025 OVC080
     FM250500 15009KT 5SM BR SCT025 OVC050
     FM251200 18014G24KT 4SM -RA SCT025 OVC050
     FM251800 18025G35KT 2SM -RA BR SCT018 BKN025 OVC045=

USA.gov is the U.S. government's official web portal to all federal, state and local government web resources and services.